createdAt,value
2022-07-26T00:01:58.596Z,20.30
2022-07-26T00:04:27.015Z,20.30
2022-07-26T00:06:56.037Z,20.30
2022-07-26T00:09:23.760Z,20.30
2022-07-26T00:11:51.686Z,20.30
2022-07-26T00:14:20.144Z,20.20
2022-07-26T00:16:48.481Z,20.20
2022-07-26T00:19:16.167Z,20.20
2022-07-26T00:21:43.910Z,20.20
2022-07-26T00:24:12.434Z,20.20
2022-07-26T00:26:40.735Z,20.20
2022-07-26T00:29:08.611Z,20.10
2022-07-26T00:31:37.227Z,20.20
2022-07-26T00:34:05.482Z,20.20
2022-07-26T00:36:32.405Z,20.10
2022-07-26T00:39:00.011Z,20.10
2022-07-26T00:41:27.550Z,20.10
2022-07-26T00:43:59.619Z,20.10
2022-07-26T00:46:26.875Z,20.10
2022-07-26T00:48:54.897Z,20.10
2022-07-26T00:51:22.889Z,20.10
2022-07-26T00:53:50.548Z,20.10
2022-07-26T00:56:18.506Z,20.10
2022-07-26T00:58:46.745Z,20.10
2022-07-26T01:01:15.295Z,20.10
2022-07-26T01:03:42.971Z,20.00
2022-07-26T01:06:12.467Z,20.10
2022-07-26T01:08:40.682Z,20.00
2022-07-26T01:11:08.363Z,20.10
2022-07-26T01:13:36.054Z,20.00
2022-07-26T01:16:04.450Z,19.90
2022-07-26T01:18:34.077Z,20.00
2022-07-26T01:21:09.031Z,19.90
2022-07-26T01:23:43.810Z,19.90
2022-07-26T01:26:12.636Z,19.80
2022-07-26T01:28:42.795Z,19.70
2022-07-26T01:31:11.559Z,19.70
2022-07-26T01:33:39.281Z,19.70
2022-07-26T01:36:07.151Z,19.70
2022-07-26T01:38:35.586Z,19.60
2022-07-26T01:41:04.037Z,19.60
2022-07-26T01:43:31.705Z,19.60
2022-07-26T01:46:00.361Z,19.60
2022-07-26T01:48:28.407Z,19.60
2022-07-26T01:50:58.474Z,19.50
2022-07-26T01:53:26.751Z,19.50
2022-07-26T01:55:54.370Z,19.50
2022-07-26T01:58:22.748Z,19.50
2022-07-26T02:00:50.578Z,19.50
2022-07-26T02:03:18.278Z,19.40
2022-07-26T02:05:46.719Z,19.40
2022-07-26T02:08:14.573Z,19.40
2022-07-26T02:11:00.485Z,19.40
2022-07-26T02:13:37.242Z,19.50
2022-07-26T02:16:09.089Z,19.50
2022-07-26T02:18:43.449Z,19.50
2022-07-26T02:21:11.080Z,19.40
2022-07-26T02:23:41.456Z,19.40
2022-07-26T02:26:09.020Z,19.30
2022-07-26T02:28:38.818Z,19.30
2022-07-26T02:31:06.409Z,19.20
2022-07-26T02:33:34.787Z,19.20
2022-07-26T02:36:01.738Z,19.20
2022-07-26T02:38:29.314Z,19.20
2022-07-26T02:40:56.945Z,19.20
2022-07-26T02:43:23.915Z,19.20
2022-07-26T02:46:01.266Z,19.20
2022-07-26T02:48:32.386Z,19.20
2022-07-26T02:51:00.380Z,19.20
2022-07-26T02:53:31.454Z,19.10
2022-07-26T02:55:59.099Z,19.10
2022-07-26T02:58:27.277Z,19.10
2022-07-26T03:00:55.309Z,19.20
2022-07-26T03:03:23.964Z,19.10
2022-07-26T03:05:52.246Z,19.10
2022-07-26T03:08:19.864Z,19.20
2022-07-26T03:10:48.878Z,19.20
2022-07-26T03:13:17.079Z,19.10
2022-07-26T03:15:46.116Z,19.10
2022-07-26T03:18:14.310Z,19.10
2022-07-26T03:20:42.737Z,19.10
2022-07-26T03:23:10.293Z,19.20
2022-07-26T03:25:39.301Z,19.10
2022-07-26T03:28:08.473Z,19.20
2022-07-26T03:30:37.468Z,19.10
2022-07-26T03:33:06.563Z,19.20
2022-07-26T03:35:36.400Z,19.10
2022-07-26T03:38:05.467Z,19.20
2022-07-26T03:40:35.081Z,19.10
2022-07-26T03:43:03.448Z,19.10
2022-07-26T03:45:31.751Z,19.10
2022-07-26T03:47:58.745Z,19.00
2022-07-26T03:50:27.686Z,19.10
2022-07-26T03:52:56.895Z,19.10
2022-07-26T03:55:43.107Z,19.00
2022-07-26T03:58:11.469Z,19.00
2022-07-26T04:00:39.411Z,19.00
2022-07-26T04:03:07.088Z,19.00
2022-07-26T04:05:34.741Z,19.00
2022-07-26T04:08:04.153Z,19.00
2022-07-26T04:10:31.867Z,19.00
2022-07-26T04:13:00.730Z,19.00
2022-07-26T04:15:28.363Z,19.00
2022-07-26T04:17:56.903Z,19.00
2022-07-26T04:20:24.511Z,19.00
2022-07-26T04:22:52.883Z,19.00
2022-07-26T04:25:21.431Z,19.00
2022-07-26T04:27:49.034Z,19.00
2022-07-26T04:30:18.000Z,19.00
2022-07-26T04:32:46.700Z,19.00
2022-07-26T04:35:14.387Z,19.00
2022-07-26T04:37:44.341Z,19.00
2022-07-26T04:40:17.049Z,19.00
2022-07-26T04:42:44.156Z,19.00
2022-07-26T04:45:12.817Z,19.00
2022-07-26T04:47:44.930Z,19.00
2022-07-26T04:50:13.411Z,19.00
2022-07-26T04:52:42.346Z,19.00
2022-07-26T04:55:11.146Z,18.90
2022-07-26T04:57:40.379Z,18.90
2022-07-26T05:00:27.994Z,18.90
2022-07-26T05:03:00.425Z,18.90
2022-07-26T05:05:31.497Z,18.90
2022-07-26T05:08:01.678Z,18.90
2022-07-26T05:10:35.217Z,19.00
2022-07-26T05:13:06.120Z,19.00
2022-07-26T05:15:38.902Z,19.00
2022-07-26T05:18:10.437Z,19.00
2022-07-26T05:20:38.726Z,19.00
2022-07-26T05:23:06.957Z,18.90
2022-07-26T05:25:36.592Z,19.00
2022-07-26T05:28:05.976Z,18.90
2022-07-26T05:30:34.336Z,19.00
2022-07-26T05:33:03.299Z,18.90
2022-07-26T05:35:32.084Z,19.00
2022-07-26T05:38:01.099Z,18.90
2022-07-26T05:40:30.110Z,18.90
2022-07-26T05:42:58.480Z,18.90
2022-07-26T05:45:26.032Z,18.90
2022-07-26T05:47:55.744Z,18.90
2022-07-26T05:50:23.470Z,18.90
2022-07-26T05:52:50.398Z,18.90
2022-07-26T05:55:18.024Z,18.90
2022-07-26T05:57:47.556Z,18.90
2022-07-26T06:00:17.963Z,18.90
2022-07-26T06:02:45.559Z,18.90
2022-07-26T06:05:12.938Z,18.90
2022-07-26T06:07:40.469Z,18.80
2022-07-26T06:10:09.191Z,18.80
2022-07-26T06:12:36.309Z,18.80
2022-07-26T06:15:14.727Z,18.80
2022-07-26T06:17:44.327Z,18.80
2022-07-26T06:20:12.077Z,18.80
2022-07-26T06:22:54.731Z,18.80
2022-07-26T06:25:23.090Z,18.80
2022-07-26T06:27:50.859Z,18.80
2022-07-26T06:30:17.842Z,18.80
2022-07-26T06:32:45.493Z,18.80
2022-07-26T06:35:14.253Z,18.80
2022-07-26T06:37:42.690Z,18.80
2022-07-26T06:40:11.213Z,18.80
2022-07-26T06:42:39.463Z,18.80
2022-07-26T06:45:07.882Z,18.70
2022-07-26T06:47:36.221Z,18.70
2022-07-26T06:50:04.841Z,18.70
2022-07-26T06:52:32.950Z,18.70
2022-07-26T06:55:00.759Z,18.70
2022-07-26T06:57:27.899Z,18.70
2022-07-26T06:59:55.639Z,18.70
2022-07-26T07:02:23.394Z,18.70
2022-07-26T07:04:50.415Z,18.70
2022-07-26T07:07:18.303Z,18.70
2022-07-26T07:09:46.384Z,18.70
2022-07-26T07:12:15.281Z,18.70
2022-07-26T07:14:43.011Z,18.70
2022-07-26T07:17:13.944Z,18.70
2022-07-26T07:19:42.978Z,18.70
2022-07-26T07:22:12.279Z,18.70
2022-07-26T07:24:40.873Z,18.80
2022-07-26T07:27:10.464Z,18.80
2022-07-26T07:29:41.385Z,18.80
2022-07-26T07:32:15.775Z,18.80
2022-07-26T07:34:47.715Z,18.90
2022-07-26T07:37:17.615Z,18.90
2022-07-26T07:39:48.937Z,18.90
2022-07-26T07:42:19.352Z,19.00
2022-07-26T07:44:50.028Z,19.00
2022-07-26T07:47:17.333Z,19.10
2022-07-26T07:49:45.210Z,19.00
2022-07-26T07:52:13.579Z,19.00
2022-07-26T07:54:42.191Z,19.00
2022-07-26T07:57:10.595Z,19.00
2022-07-26T07:59:39.129Z,19.00
2022-07-26T08:02:06.828Z,19.00
2022-07-26T08:04:33.926Z,19.00
2022-07-26T08:07:00.975Z,19.00
2022-07-26T08:09:29.134Z,19.10
2022-07-26T08:11:58.035Z,19.10
2022-07-26T08:14:27.982Z,19.20
2022-07-26T08:16:56.861Z,19.10
2022-07-26T08:19:29.277Z,19.40
2022-07-26T08:22:10.291Z,19.50
2022-07-26T08:24:39.045Z,19.70
2022-07-26T08:27:07.578Z,19.80
2022-07-26T08:29:35.834Z,19.80
2022-07-26T08:32:03.650Z,19.80
2022-07-26T08:34:33.380Z,19.90
2022-07-26T08:37:16.656Z,19.90
2022-07-26T08:39:44.571Z,19.90
2022-07-26T08:42:23.034Z,19.90
2022-07-26T08:44:50.975Z,19.90
2022-07-26T08:47:39.966Z,19.80
2022-07-26T08:50:11.664Z,19.70
2022-07-26T08:52:41.156Z,19.60
2022-07-26T08:55:10.334Z,19.60
2022-07-26T08:57:38.028Z,19.50
2022-07-26T09:00:24.969Z,19.60
2022-07-26T09:02:54.067Z,19.90
2022-07-26T09:05:28.793Z,20.10
2022-07-26T09:07:57.313Z,20.40
2022-07-26T09:10:27.019Z,20.50
2022-07-26T09:12:56.115Z,20.70
2022-07-26T09:15:28.435Z,20.70
2022-07-26T09:17:58.041Z,20.80
2022-07-26T09:20:29.479Z,21.00
2022-07-26T09:23:13.770Z,21.10
2022-07-26T09:25:45.396Z,21.30
2022-07-26T09:28:31.361Z,21.40
2022-07-26T09:31:05.250Z,21.50
2022-07-26T09:33:45.676Z,21.60
2022-07-26T09:36:14.665Z,21.80
2022-07-26T09:38:45.971Z,22.00
2022-07-26T09:41:21.227Z,22.00
2022-07-26T09:43:53.733Z,22.20
2022-07-26T09:46:26.336Z,22.40
2022-07-26T09:49:11.867Z,22.50
2022-07-26T09:51:43.241Z,22.60
2022-07-26T09:54:12.984Z,22.70
2022-07-26T09:56:48.722Z,23.00
2022-07-26T09:59:20.516Z,23.30
2022-07-26T10:01:50.341Z,23.40
2022-07-26T10:04:20.270Z,23.20
2022-07-26T10:06:49.279Z,23.50
2022-07-26T10:09:23.010Z,23.80
2022-07-26T10:12:14.148Z,23.80
2022-07-26T10:14:47.939Z,23.90
2022-07-26T10:17:32.381Z,23.90
2022-07-26T10:20:29.570Z,23.80
2022-07-26T10:22:59.187Z,23.60
2022-07-26T10:25:28.815Z,23.30
2022-07-26T10:27:58.044Z,23.20
2022-07-26T10:30:34.201Z,23.00
2022-07-26T10:33:08.024Z,22.90
2022-07-26T10:35:36.476Z,22.60
2022-07-26T10:38:23.067Z,22.50
2022-07-26T10:41:04.452Z,22.40
2022-07-26T10:43:42.438Z,22.40
2022-07-26T10:46:16.659Z,22.30
2022-07-26T10:49:06.663Z,22.20
2022-07-26T10:51:39.628Z,22.10
2022-07-26T10:54:13.378Z,22.30
2022-07-26T10:56:41.583Z,22.40
2022-07-26T10:59:09.967Z,22.70
2022-07-26T11:01:42.702Z,23.00
2022-07-26T11:04:24.894Z,23.00
2022-07-26T11:06:52.391Z,22.90
2022-07-26T11:09:23.566Z,22.90
2022-07-26T11:11:52.429Z,22.70
2022-07-26T11:14:20.623Z,22.50
2022-07-26T11:16:50.705Z,22.30
2022-07-26T11:19:20.857Z,22.30
2022-07-26T11:21:54.598Z,22.20
2022-07-26T11:24:22.446Z,22.10
2022-07-26T11:26:50.862Z,22.10
2022-07-26T11:29:38.821Z,22.00
2022-07-26T11:32:18.683Z,21.80
2022-07-26T11:34:57.306Z,21.80
2022-07-26T11:37:25.086Z,21.70
2022-07-26T11:39:52.663Z,21.80
2022-07-26T11:42:22.196Z,22.20
2022-07-26T11:44:51.561Z,22.40
2022-07-26T11:47:25.742Z,22.70
2022-07-26T11:52:44.123Z,22.70
2022-07-26T11:55:12.567Z,22.60
2022-07-26T11:57:41.578Z,22.50
2022-07-26T12:00:10.455Z,22.30
2022-07-26T12:02:39.048Z,22.00
2022-07-26T12:05:22.117Z,21.90
2022-07-26T12:07:54.793Z,21.80
2022-07-26T12:10:23.328Z,21.60
2022-07-26T12:13:11.203Z,21.60
2022-07-26T12:15:50.306Z,21.50
2022-07-26T12:18:31.674Z,21.40
2022-07-26T12:21:05.575Z,21.40
2022-07-26T12:23:49.717Z,21.20
2022-07-26T12:26:20.231Z,20.80
2022-07-26T12:28:47.857Z,20.70
2022-07-26T12:31:27.690Z,20.60
2022-07-26T12:33:56.894Z,20.50
2022-07-26T12:36:26.980Z,20.40
2022-07-26T12:39:00.883Z,20.40
2022-07-26T12:41:37.387Z,20.40
2022-07-26T12:44:12.620Z,20.40
2022-07-26T12:46:40.710Z,20.40
2022-07-26T12:49:08.398Z,20.40
2022-07-26T12:51:35.602Z,20.30
2022-07-26T12:54:06.085Z,20.30
2022-07-26T12:56:33.962Z,20.30
2022-07-26T12:59:01.927Z,20.40
2022-07-26T13:01:31.500Z,20.50
2022-07-26T13:04:01.004Z,20.40
2022-07-26T13:06:29.290Z,20.40
2022-07-26T13:08:56.648Z,20.40
2022-07-26T13:11:23.967Z,20.30
2022-07-26T13:13:52.426Z,20.40
2022-07-26T13:16:20.951Z,20.50
2022-07-26T13:18:49.279Z,20.60
2022-07-26T13:21:18.042Z,20.90
2022-07-26T13:23:46.279Z,21.10
2022-07-26T13:26:14.508Z,21.10
2022-07-26T13:28:41.750Z,21.30
2022-07-26T13:31:10.086Z,21.40
2022-07-26T13:33:40.218Z,21.50
2022-07-26T13:36:08.390Z,21.70
2022-07-26T13:38:36.790Z,21.90
2022-07-26T13:41:05.876Z,21.80
2022-07-26T13:43:35.418Z,21.60
2022-07-26T13:46:03.195Z,21.60
2022-07-26T13:48:31.545Z,21.50
2022-07-26T13:51:00.445Z,21.60
2022-07-26T13:53:30.007Z,21.80
2022-07-26T13:55:58.257Z,21.90
2022-07-26T13:58:26.807Z,21.90
2022-07-26T14:00:54.255Z,22.00
2022-07-26T14:03:22.777Z,22.00
2022-07-26T14:05:49.909Z,22.00
2022-07-26T14:08:16.992Z,22.10
2022-07-26T14:10:45.238Z,22.10
2022-07-26T14:13:12.448Z,22.10
2022-07-26T14:15:39.394Z,22.20
2022-07-26T14:18:07.060Z,22.30
2022-07-26T14:20:36.745Z,22.10
2022-07-26T14:23:04.938Z,22.10
2022-07-26T14:25:33.258Z,21.80
2022-07-26T14:28:01.073Z,21.70
2022-07-26T14:30:30.469Z,21.60
2022-07-26T14:33:00.400Z,21.60
2022-07-26T14:35:28.223Z,21.60
2022-07-26T14:37:55.783Z,21.60
2022-07-26T14:40:23.528Z,21.60
2022-07-26T14:42:50.489Z,21.50
2022-07-26T14:45:18.744Z,21.40
2022-07-26T14:47:47.925Z,21.40
2022-07-26T14:50:16.305Z,21.40
2022-07-26T14:52:47.157Z,21.40
2022-07-26T14:55:17.480Z,21.50
2022-07-26T14:57:48.779Z,21.70
2022-07-26T15:00:17.807Z,21.80
2022-07-26T15:02:48.582Z,21.90
2022-07-26T15:05:17.854Z,21.90
2022-07-26T15:07:45.069Z,21.80
2022-07-26T15:10:14.644Z,22.00
2022-07-26T15:12:42.971Z,21.80
2022-07-26T15:15:11.202Z,21.60
2022-07-26T15:17:38.887Z,21.50
2022-07-26T15:20:07.764Z,21.50
2022-07-26T15:22:35.515Z,21.50
2022-07-26T15:25:03.576Z,21.30
2022-07-26T15:27:31.344Z,21.30
2022-07-26T15:30:04.804Z,21.30
2022-07-26T15:32:35.052Z,21.30
2022-07-26T15:35:03.493Z,21.20
2022-07-26T15:37:31.115Z,21.20
2022-07-26T15:39:58.142Z,21.00
2022-07-26T15:42:25.924Z,21.00
2022-07-26T15:44:52.865Z,21.10
2022-07-26T15:50:12.323Z,21.30
2022-07-26T15:52:47.312Z,21.20
2022-07-26T15:55:18.073Z,21.20
2022-07-26T15:57:46.589Z,21.10
2022-07-26T16:00:16.690Z,21.10
2022-07-26T16:02:44.676Z,21.00
2022-07-26T16:05:13.373Z,21.00
2022-07-26T16:07:41.905Z,20.90
2022-07-26T16:10:12.319Z,20.80
2022-07-26T16:12:42.194Z,20.80
2022-07-26T16:15:10.865Z,20.70
2022-07-26T16:17:39.778Z,20.80
2022-07-26T16:20:09.967Z,20.90
2022-07-26T16:22:41.004Z,20.80
2022-07-26T16:25:13.214Z,20.70
2022-07-26T16:27:43.546Z,20.70
2022-07-26T16:30:13.603Z,20.70
2022-07-26T16:32:41.665Z,20.60
2022-07-26T16:35:10.240Z,20.60
2022-07-26T16:37:38.035Z,20.60
2022-07-26T16:40:09.448Z,20.50
2022-07-26T16:42:37.726Z,20.40
2022-07-26T16:45:06.447Z,20.40
2022-07-26T16:47:33.396Z,20.30
2022-07-26T16:50:05.554Z,20.30
2022-07-26T16:52:34.074Z,20.30
2022-07-26T16:55:03.997Z,20.20
2022-07-26T16:57:32.576Z,20.20
2022-07-26T17:00:00.126Z,20.20
2022-07-26T17:02:28.464Z,20.20
2022-07-26T17:04:58.648Z,20.30
2022-07-26T17:07:26.753Z,20.30
2022-07-26T17:09:55.745Z,20.30
2022-07-26T17:12:24.444Z,20.30
2022-07-26T17:14:52.662Z,20.30
2022-07-26T17:17:22.056Z,20.30
2022-07-26T17:19:50.833Z,20.20
2022-07-26T17:22:19.977Z,20.20
2022-07-26T17:24:47.390Z,20.10
2022-07-26T17:27:16.206Z,20.10
2022-07-26T17:29:45.017Z,20.10
2022-07-26T17:32:13.423Z,20.10
2022-07-26T17:34:41.662Z,20.10
2022-07-26T17:37:10.483Z,20.10
2022-07-26T17:39:52.697Z,20.00
2022-07-26T17:42:22.392Z,20.00
2022-07-26T17:44:51.427Z,20.00
2022-07-26T17:47:29.323Z,20.00
2022-07-26T17:50:34.126Z,20.00
2022-07-26T17:52:50.874Z,19.90
2022-07-26T17:55:20.264Z,19.90
2022-07-26T17:57:50.367Z,19.90
2022-07-26T18:00:21.646Z,19.80
2022-07-26T18:02:50.023Z,19.80
2022-07-26T18:05:19.565Z,19.70
2022-07-26T18:07:48.794Z,19.70
2022-07-26T18:10:17.085Z,19.60
2022-07-26T18:12:46.171Z,19.60
2022-07-26T18:15:14.446Z,19.60
2022-07-26T18:17:43.746Z,19.60
2022-07-26T18:20:11.948Z,19.50
2022-07-26T18:22:40.452Z,19.60
2022-07-26T18:25:09.783Z,19.50
2022-07-26T18:27:38.944Z,19.50
2022-07-26T18:30:07.793Z,19.50
2022-07-26T18:32:35.099Z,19.50
2022-07-26T18:35:03.125Z,19.50
2022-07-26T18:37:31.799Z,19.50
2022-07-26T18:40:00.127Z,19.50
2022-07-26T18:42:27.946Z,19.50
2022-07-26T18:44:56.235Z,19.40
2022-07-26T18:47:25.043Z,19.40
2022-07-26T18:49:53.289Z,19.30
2022-07-26T18:52:28.260Z,19.30
2022-07-26T18:54:59.530Z,19.20
2022-07-26T18:57:27.810Z,19.20
2022-07-26T18:59:55.378Z,19.10
2022-07-26T19:02:23.757Z,19.10
2022-07-26T19:04:51.297Z,19.00
2022-07-26T19:07:19.103Z,19.00
2022-07-26T19:09:47.369Z,18.90
2022-07-26T19:12:16.661Z,18.90
2022-07-26T19:14:44.246Z,18.90
2022-07-26T19:17:12.057Z,18.80
2022-07-26T19:19:40.327Z,18.70
2022-07-26T19:22:08.928Z,18.70
2022-07-26T19:24:38.355Z,18.70
2022-07-26T19:27:05.907Z,18.60
2022-07-26T19:29:33.437Z,18.60
2022-07-26T19:32:00.998Z,18.50
2022-07-26T19:34:29.419Z,18.50
2022-07-26T19:36:56.994Z,18.40
2022-07-26T19:39:24.738Z,18.30
2022-07-26T19:41:54.238Z,18.30
2022-07-26T19:44:21.879Z,18.20
2022-07-26T19:46:55.516Z,18.20
2022-07-26T19:49:24.406Z,18.20
2022-07-26T19:51:52.683Z,18.10
2022-07-26T19:54:21.497Z,18.00
2022-07-26T19:56:51.700Z,18.00
2022-07-26T19:59:23.487Z,18.00
2022-07-26T20:01:53.051Z,17.90
2022-07-26T20:04:22.718Z,17.90
2022-07-26T20:06:49.753Z,17.80
2022-07-26T20:09:18.594Z,17.80
2022-07-26T20:11:50.926Z,17.80
2022-07-26T20:14:19.682Z,17.70
2022-07-26T20:16:52.982Z,17.70
2022-07-26T20:19:24.563Z,17.70
2022-07-26T20:21:52.773Z,17.60
2022-07-26T20:24:21.325Z,17.60
2022-07-26T20:26:49.578Z,17.60
2022-07-26T20:29:18.818Z,17.50
2022-07-26T20:31:47.118Z,17.50
2022-07-26T20:34:14.844Z,17.40
2022-07-26T20:36:43.197Z,17.40
2022-07-26T20:39:10.955Z,17.30
2022-07-26T20:41:38.811Z,17.30
2022-07-26T20:44:06.458Z,17.30
2022-07-26T20:46:39.743Z,17.20
2022-07-26T20:49:08.694Z,17.20
2022-07-26T20:51:36.943Z,17.20
2022-07-26T20:54:05.566Z,17.10
2022-07-26T20:56:33.875Z,17.10
2022-07-26T20:59:02.352Z,17.10
2022-07-26T21:01:33.525Z,17.10
2022-07-26T21:04:01.887Z,17.00
2022-07-26T21:06:33.242Z,17.10
2022-07-26T21:09:09.700Z,17.10
2022-07-26T21:11:40.251Z,17.00
2022-07-26T21:14:08.740Z,17.00
2022-07-26T21:16:37.281Z,17.00
2022-07-26T21:19:05.944Z,17.00
2022-07-26T21:21:34.395Z,17.00
2022-07-26T21:24:02.110Z,16.90
2022-07-26T21:26:31.375Z,16.90
2022-07-26T21:28:58.440Z,16.90
2022-07-26T21:31:26.651Z,16.80
2022-07-26T21:33:54.947Z,16.80
2022-07-26T21:36:22.754Z,16.70
2022-07-26T21:38:50.298Z,16.80
2022-07-26T21:41:18.498Z,16.70
2022-07-26T21:43:47.670Z,16.70
2022-07-26T21:46:15.427Z,16.70
2022-07-26T21:48:42.656Z,16.70
2022-07-26T21:51:11.319Z,16.60
2022-07-26T21:53:39.511Z,16.60
2022-07-26T21:56:06.697Z,16.60
2022-07-26T21:58:36.798Z,16.60
2022-07-26T22:01:08.571Z,16.60
2022-07-26T22:03:36.769Z,16.60
2022-07-26T22:06:05.311Z,16.50
2022-07-26T22:08:35.331Z,16.50
2022-07-26T22:11:04.006Z,16.50
2022-07-26T22:13:30.970Z,16.40
2022-07-26T22:15:59.938Z,16.40
2022-07-26T22:18:28.082Z,16.40
2022-07-26T22:20:55.976Z,16.40
2022-07-26T22:23:23.247Z,16.40
2022-07-26T22:25:51.480Z,16.40
2022-07-26T22:28:19.133Z,16.40
2022-07-26T22:30:47.467Z,16.40
2022-07-26T22:33:15.725Z,16.40
2022-07-26T22:35:43.947Z,16.40
2022-07-26T22:38:12.243Z,16.40
2022-07-26T22:40:42.261Z,16.40
2022-07-26T22:43:10.487Z,16.40
2022-07-26T22:45:38.073Z,16.40
2022-07-26T22:48:06.460Z,16.50
2022-07-26T22:50:34.765Z,16.50
2022-07-26T22:53:02.462Z,16.50
2022-07-26T22:55:31.490Z,16.40
2022-07-26T22:58:00.861Z,16.40
2022-07-26T23:00:28.572Z,16.40
2022-07-26T23:02:57.303Z,16.40
2022-07-26T23:05:26.091Z,16.40
2022-07-26T23:08:43.881Z,16.30
2022-07-26T23:10:59.460Z,16.30
2022-07-26T23:13:28.415Z,16.30
2022-07-26T23:16:00.790Z,16.30
2022-07-26T23:18:28.094Z,16.30
2022-07-26T23:20:55.059Z,16.30
2022-07-26T23:23:22.726Z,16.20
2022-07-26T23:25:54.335Z,16.20
2022-07-26T23:28:35.269Z,16.20
2022-07-26T23:31:11.217Z,16.30
2022-07-26T23:33:51.927Z,16.20
2022-07-26T23:36:27.612Z,16.30
2022-07-26T23:38:57.531Z,16.30
2022-07-26T23:41:26.553Z,16.30
2022-07-26T23:43:54.766Z,16.30
2022-07-26T23:46:22.191Z,16.20
2022-07-26T23:48:51.548Z,16.20
2022-07-26T23:51:19.888Z,16.20
2022-07-26T23:53:47.927Z,16.20
2022-07-26T23:56:15.795Z,16.20
2022-07-26T23:58:43.886Z,16.20
